sensor_id;sensor_type;location;lat;lon;timestamp;temperature;humidity
5027;DHT22;2532;52.480;13.354;2023-12-22T00:00:17;6.80;95.30
5027;DHT22;2532;52.480;13.354;2023-12-22T00:02:45;6.70;95.30
5027;DHT22;2532;52.480;13.354;2023-12-22T00:05:12;6.70;95.60
5027;DHT22;2532;52.480;13.354;2023-12-22T00:07:39;6.60;95.80
5027;DHT22;2532;52.480;13.354;2023-12-22T00:10:07;6.60;95.90
5027;DHT22;2532;52.480;13.354;2023-12-22T00:12:34;6.50;96.00
5027;DHT22;2532;52.480;13.354;2023-12-22T00:15:04;6.50;96.00
5027;DHT22;2532;52.480;13.354;2023-12-22T00:17:31;6.40;95.70
5027;DHT22;2532;52.480;13.354;2023-12-22T00:20:00;6.30;95.40
5027;DHT22;2532;52.480;13.354;2023-12-22T00:22:28;6.30;95.30
5027;DHT22;2532;52.480;13.354;2023-12-22T00:24:55;6.30;94.70
5027;DHT22;2532;52.480;13.354;2023-12-22T00:27:22;6.30;94.60
5027;DHT22;2532;52.480;13.354;2023-12-22T00:29:49;6.20;94.30
5027;DHT22;2532;52.480;13.354;2023-12-22T00:32:16;6.20;93.90
5027;DHT22;2532;52.480;13.354;2023-12-22T00:34:43;6.30;93.90
5027;DHT22;2532;52.480;13.354;2023-12-22T00:37:11;6.30;93.80
5027;DHT22;2532;52.480;13.354;2023-12-22T00:39:39;6.30;93.70
5027;DHT22;2532;52.480;13.354;2023-12-22T00:42:06;6.40;93.70
5027;DHT22;2532;52.480;13.354;2023-12-22T00:44:33;6.40;93.80
5027;DHT22;2532;52.480;13.354;2023-12-22T00:47:00;6.40;93.80
5027;DHT22;2532;52.480;13.354;2023-12-22T00:49:27;6.40;93.90
5027;DHT22;2532;52.480;13.354;2023-12-22T00:51:54;6.50;94.00
5027;DHT22;2532;52.480;13.354;2023-12-22T00:54:22;6.50;94.20
5027;DHT22;2532;52.480;13.354;2023-12-22T00:56:50;6.50;94.30
5027;DHT22;2532;52.480;13.354;2023-12-22T00:59:17;6.50;94.60
5027;DHT22;2532;52.480;13.354;2023-12-22T01:01:44;6.50;95.00
5027;DHT22;2532;52.480;13.354;2023-12-22T01:04:11;6.50;95.40
5027;DHT22;2532;52.480;13.354;2023-12-22T01:06:39;6.40;95.60
5027;DHT22;2532;52.480;13.354;2023-12-22T01:09:07;6.40;95.80
5027;DHT22;2532;52.480;13.354;2023-12-22T01:11:35;6.30;96.00
5027;DHT22;2532;52.480;13.354;2023-12-22T01:14:06;6.30;96.10
5027;DHT22;2532;52.480;13.354;2023-12-22T01:16:33;6.20;96.20
5027;DHT22;2532;52.480;13.354;2023-12-22T01:19:00;6.20;96.40
5027;DHT22;2532;52.480;13.354;2023-12-22T01:21:27;6.20;96.40
5027;DHT22;2532;52.480;13.354;2023-12-22T01:23:54;6.20;96.40
5027;DHT22;2532;52.480;13.354;2023-12-22T01:26:21;6.30;96.50
5027;DHT22;2532;52.480;13.354;2023-12-22T01:28:49;6.20;96.50
5027;DHT22;2532;52.480;13.354;2023-12-22T01:31:16;6.20;96.60
5027;DHT22;2532;52.480;13.354;2023-12-22T01:33:43;6.20;96.70
5027;DHT22;2532;52.480;13.354;2023-12-22T01:36:10;6.20;96.80
5027;DHT22;2532;52.480;13.354;2023-12-22T01:38:38;6.20;96.90
5027;DHT22;2532;52.480;13.354;2023-12-22T01:41:06;6.20;96.80
5027;DHT22;2532;52.480;13.354;2023-12-22T01:43:34;6.20;96.80
5027;DHT22;2532;52.480;13.354;2023-12-22T01:46:04;6.20;96.80
5027;DHT22;2532;52.480;13.354;2023-12-22T01:48:33;6.20;96.90
5027;DHT22;2532;52.480;13.354;2023-12-22T01:51:02;6.10;96.90
5027;DHT22;2532;52.480;13.354;2023-12-22T01:53:30;6.10;96.90
5027;DHT22;2532;52.480;13.354;2023-12-22T01:55:59;6.10;97.00
5027;DHT22;2532;52.480;13.354;2023-12-22T01:58:27;6.10;97.00
5027;DHT22;2532;52.480;13.354;2023-12-22T02:00:55;6.10;97.00
5027;DHT22;2532;52.480;13.354;2023-12-22T02:03:24;6.10;97.10
5027;DHT22;2532;52.480;13.354;2023-12-22T02:05:52;6.10;97.10
5027;DHT22;2532;52.480;13.354;2023-12-22T02:08:19;6.10;97.10
5027;DHT22;2532;52.480;13.354;2023-12-22T02:10:48;6.10;97.40
5027;DHT22;2532;52.480;13.354;2023-12-22T02:13:15;6.10;97.10
5027;DHT22;2532;52.480;13.354;2023-12-22T02:15:42;6.10;97.20
5027;DHT22;2532;52.480;13.354;2023-12-22T02:18:14;6.10;97.30
5027;DHT22;2532;52.480;13.354;2023-12-22T02:20:43;6.10;97.30
5027;DHT22;2532;52.480;13.354;2023-12-22T02:23:12;6.10;97.30
5027;DHT22;2532;52.480;13.354;2023-12-22T02:25:39;6.10;97.70
5027;DHT22;2532;52.480;13.354;2023-12-22T02:28:09;6.00;97.30
5027;DHT22;2532;52.480;13.354;2023-12-22T02:30:40;6.00;97.40
5027;DHT22;2532;52.480;13.354;2023-12-22T02:33:10;6.00;97.40
5027;DHT22;2532;52.480;13.354;2023-12-22T02:35:39;6.10;97.40
5027;DHT22;2532;52.480;13.354;2023-12-22T02:38:08;6.10;97.30
5027;DHT22;2532;52.480;13.354;2023-12-22T02:40:37;6.10;97.30
5027;DHT22;2532;52.480;13.354;2023-12-22T02:43:05;6.10;97.60
5027;DHT22;2532;52.480;13.354;2023-12-22T02:45:33;6.00;97.30
5027;DHT22;2532;52.480;13.354;2023-12-22T02:48:00;6.00;97.30
5027;DHT22;2532;52.480;13.354;2023-12-22T02:50:29;6.00;97.30
5027;DHT22;2532;52.480;13.354;2023-12-22T02:52:56;5.90;97.30
5027;DHT22;2532;52.480;13.354;2023-12-22T02:55:23;5.90;97.30
5027;DHT22;2532;52.480;13.354;2023-12-22T02:57:52;5.80;97.30
5027;DHT22;2532;52.480;13.354;2023-12-22T03:00:19;5.80;97.50
5027;DHT22;2532;52.480;13.354;2023-12-22T03:02:46;5.80;97.50
5027;DHT22;2532;52.480;13.354;2023-12-22T03:05:13;5.80;97.60
5027;DHT22;2532;52.480;13.354;2023-12-22T03:07:40;5.80;97.50
5027;DHT22;2532;52.480;13.354;2023-12-22T03:10:07;5.80;97.60
5027;DHT22;2532;52.480;13.354;2023-12-22T03:12:34;5.80;97.60
5027;DHT22;2532;52.480;13.354;2023-12-22T03:15:03;5.80;97.60
5027;DHT22;2532;52.480;13.354;2023-12-22T03:17:30;5.70;97.30
5027;DHT22;2532;52.480;13.354;2023-12-22T03:19:57;5.70;97.30
5027;DHT22;2532;52.480;13.354;2023-12-22T03:22:24;5.70;97.40
5027;DHT22;2532;52.480;13.354;2023-12-22T03:24:51;5.70;97.40
5027;DHT22;2532;52.480;13.354;2023-12-22T03:27:18;5.70;97.40
5027;DHT22;2532;52.480;13.354;2023-12-22T03:29:45;5.70;97.50
5027;DHT22;2532;52.480;13.354;2023-12-22T03:32:14;5.70;97.60
5027;DHT22;2532;52.480;13.354;2023-12-22T03:34:40;5.70;97.70
5027;DHT22;2532;52.480;13.354;2023-12-22T03:37:07;5.70;97.70
5027;DHT22;2532;52.480;13.354;2023-12-22T03:39:34;5.70;97.70
5027;DHT22;2532;52.480;13.354;2023-12-22T03:42:01;5.70;97.80
5027;DHT22;2532;52.480;13.354;2023-12-22T03:44:28;5.70;97.70
5027;DHT22;2532;52.480;13.354;2023-12-22T03:46:55;5.80;97.80
5027;DHT22;2532;52.480;13.354;2023-12-22T03:49:24;5.70;97.70
5027;DHT22;2532;52.480;13.354;2023-12-22T03:51:51;5.80;97.70
5027;DHT22;2532;52.480;13.354;2023-12-22T03:54:18;5.80;97.60
5027;DHT22;2532;52.480;13.354;2023-12-22T03:56:45;5.70;97.60
5027;DHT22;2532;52.480;13.354;2023-12-22T03:59:12;5.70;97.70
5027;DHT22;2532;52.480;13.354;2023-12-22T04:01:39;5.70;97.90
5027;DHT22;2532;52.480;13.354;2023-12-22T04:04:06;5.70;98.10
5027;DHT22;2532;52.480;13.354;2023-12-22T04:06:38;5.70;98.10
5027;DHT22;2532;52.480;13.354;2023-12-22T04:09:05;5.70;98.20
5027;DHT22;2532;52.480;13.354;2023-12-22T04:11:31;5.60;98.30
5027;DHT22;2532;52.480;13.354;2023-12-22T04:14:00;5.60;98.30
5027;DHT22;2532;52.480;13.354;2023-12-22T04:16:27;5.60;98.50
5027;DHT22;2532;52.480;13.354;2023-12-22T04:18:54;5.60;98.70
5027;DHT22;2532;52.480;13.354;2023-12-22T04:21:20;5.50;98.90
5027;DHT22;2532;52.480;13.354;2023-12-22T04:23:49;5.40;99.20
5027;DHT22;2532;52.480;13.354;2023-12-22T04:26:16;5.40;99.50
5027;DHT22;2532;52.480;13.354;2023-12-22T04:28:43;5.30;99.80
5027;DHT22;2532;52.480;13.354;2023-12-22T04:31:10;5.30;99.90
5027;DHT22;2532;52.480;13.354;2023-12-22T04:33:37;5.20;99.90
5027;DHT22;2532;52.480;13.354;2023-12-22T04:36:04;5.20;99.90
5027;DHT22;2532;52.480;13.354;2023-12-22T04:38:31;5.20;99.90
5027;DHT22;2532;52.480;13.354;2023-12-22T04:40:59;5.20;99.90
5027;DHT22;2532;52.480;13.354;2023-12-22T04:43:26;5.20;99.90
5027;DHT22;2532;52.480;13.354;2023-12-22T04:45:53;5.20;99.90
5027;DHT22;2532;52.480;13.354;2023-12-22T04:48:20;5.10;99.90
5027;DHT22;2532;52.480;13.354;2023-12-22T04:50:47;5.10;99.90
5027;DHT22;2532;52.480;13.354;2023-12-22T04:53:14;5.10;99.90
5027;DHT22;2532;52.480;13.354;2023-12-22T04:55:41;5.10;99.90
5027;DHT22;2532;52.480;13.354;2023-12-22T04:58:09;5.20;99.90
5027;DHT22;2532;52.480;13.354;2023-12-22T05:00:36;5.20;99.90
5027;DHT22;2532;52.480;13.354;2023-12-22T05:03:04;5.20;99.90
5027;DHT22;2532;52.480;13.354;2023-12-22T05:05:31;5.20;99.90
5027;DHT22;2532;52.480;13.354;2023-12-22T05:07:58;5.10;99.90
5027;DHT22;2532;52.480;13.354;2023-12-22T05:10:25;5.00;99.90
5027;DHT22;2532;52.480;13.354;2023-12-22T05:12:52;5.00;99.90
5027;DHT22;2532;52.480;13.354;2023-12-22T05:15:23;4.90;99.90
5027;DHT22;2532;52.480;13.354;2023-12-22T05:17:50;4.80;99.90
5027;DHT22;2532;52.480;13.354;2023-12-22T05:20:18;4.70;99.90
5027;DHT22;2532;52.480;13.354;2023-12-22T05:22:45;4.70;99.90
5027;DHT22;2532;52.480;13.354;2023-12-22T05:25:13;4.60;99.90
5027;DHT22;2532;52.480;13.354;2023-12-22T05:27:40;4.60;99.90
5027;DHT22;2532;52.480;13.354;2023-12-22T05:30:09;4.50;99.90
5027;DHT22;2532;52.480;13.354;2023-12-22T05:32:37;4.50;99.90
5027;DHT22;2532;52.480;13.354;2023-12-22T05:35:05;4.50;99.90
5027;DHT22;2532;52.480;13.354;2023-12-22T05:37:32;4.50;99.90
5027;DHT22;2532;52.480;13.354;2023-12-22T05:39:59;4.50;99.90
5027;DHT22;2532;52.480;13.354;2023-12-22T05:42:26;4.50;99.90
5027;DHT22;2532;52.480;13.354;2023-12-22T05:44:53;4.50;99.90
5027;DHT22;2532;52.480;13.354;2023-12-22T05:47:20;4.50;99.90
5027;DHT22;2532;52.480;13.354;2023-12-22T05:49:48;4.50;99.90
5027;DHT22;2532;52.480;13.354;2023-12-22T05:52:14;4.50;99.90
5027;DHT22;2532;52.480;13.354;2023-12-22T05:54:41;4.60;99.90
5027;DHT22;2532;52.480;13.354;2023-12-22T05:57:08;4.60;99.90
5027;DHT22;2532;52.480;13.354;2023-12-22T05:59:35;4.60;99.90
5027;DHT22;2532;52.480;13.354;2023-12-22T06:02:02;4.60;99.90
5027;DHT22;2532;52.480;13.354;2023-12-22T06:04:29;4.60;99.90
5027;DHT22;2532;52.480;13.354;2023-12-22T06:06:58;4.60;99.90
5027;DHT22;2532;52.480;13.354;2023-12-22T06:09:25;4.60;99.90
5027;DHT22;2532;52.480;13.354;2023-12-22T06:11:52;4.70;99.90
5027;DHT22;2532;52.480;13.354;2023-12-22T06:14:18;4.70;99.90
5027;DHT22;2532;52.480;13.354;2023-12-22T06:16:47;4.70;99.90
5027;DHT22;2532;52.480;13.354;2023-12-22T06:19:14;4.70;99.90
5027;DHT22;2532;52.480;13.354;2023-12-22T06:21:42;4.70;99.90
5027;DHT22;2532;52.480;13.354;2023-12-22T06:24:10;4.70;99.80
5027;DHT22;2532;52.480;13.354;2023-12-22T06:26:37;4.70;99.60
5027;DHT22;2532;52.480;13.354;2023-12-22T06:29:04;4.80;99.60
5027;DHT22;2532;52.480;13.354;2023-12-22T06:31:34;4.70;99.40
5027;DHT22;2532;52.480;13.354;2023-12-22T06:34:01;4.80;99.30
5027;DHT22;2532;52.480;13.354;2023-12-22T06:36:28;4.80;99.30
5027;DHT22;2532;52.480;13.354;2023-12-22T06:38:56;4.80;99.30
5027;DHT22;2532;52.480;13.354;2023-12-22T06:41:26;4.80;99.40
5027;DHT22;2532;52.480;13.354;2023-12-22T06:43:53;4.80;99.60
5027;DHT22;2532;52.480;13.354;2023-12-22T06:46:21;4.80;99.80
5027;DHT22;2532;52.480;13.354;2023-12-22T06:48:49;4.80;99.90
5027;DHT22;2532;52.480;13.354;2023-12-22T06:51:19;4.70;99.90
5027;DHT22;2532;52.480;13.354;2023-12-22T06:53:46;4.60;99.90
5027;DHT22;2532;52.480;13.354;2023-12-22T06:56:18;4.60;99.90
5027;DHT22;2532;52.480;13.354;2023-12-22T06:58:48;4.60;99.90
5027;DHT22;2532;52.480;13.354;2023-12-22T07:01:19;4.50;99.90
5027;DHT22;2532;52.480;13.354;2023-12-22T07:03:46;4.50;99.90
5027;DHT22;2532;52.480;13.354;2023-12-22T07:06:14;4.50;99.90
5027;DHT22;2532;52.480;13.354;2023-12-22T07:08:42;4.60;99.90
5027;DHT22;2532;52.480;13.354;2023-12-22T07:11:09;4.60;99.90
5027;DHT22;2532;52.480;13.354;2023-12-22T07:13:36;4.60;99.90
5027;DHT22;2532;52.480;13.354;2023-12-22T07:16:05;4.70;99.90
5027;DHT22;2532;52.480;13.354;2023-12-22T07:18:33;4.60;99.90
5027;DHT22;2532;52.480;13.354;2023-12-22T07:21:00;4.60;99.90
5027;DHT22;2532;52.480;13.354;2023-12-22T07:23:27;4.60;99.90
5027;DHT22;2532;52.480;13.354;2023-12-22T07:25:54;4.60;99.90
5027;DHT22;2532;52.480;13.354;2023-12-22T07:28:21;4.60;99.90
5027;DHT22;2532;52.480;13.354;2023-12-22T07:30:48;4.70;99.90
5027;DHT22;2532;52.480;13.354;2023-12-22T07:33:16;4.70;99.90
5027;DHT22;2532;52.480;13.354;2023-12-22T07:35:43;4.70;99.90
5027;DHT22;2532;52.480;13.354;2023-12-22T07:38:10;4.70;99.90
5027;DHT22;2532;52.480;13.354;2023-12-22T07:40:37;4.80;99.90
5027;DHT22;2532;52.480;13.354;2023-12-22T07:43:04;4.80;99.80
5027;DHT22;2532;52.480;13.354;2023-12-22T07:45:31;4.90;99.70
5027;DHT22;2532;52.480;13.354;2023-12-22T07:48:00;4.80;99.50
5027;DHT22;2532;52.480;13.354;2023-12-22T07:50:29;4.90;99.30
5027;DHT22;2532;52.480;13.354;2023-12-22T07:52:56;4.90;99.30
5027;DHT22;2532;52.480;13.354;2023-12-22T07:55:24;5.00;99.20
5027;DHT22;2532;52.480;13.354;2023-12-22T07:57:51;5.00;98.80
5027;DHT22;2532;52.480;13.354;2023-12-22T08:00:18;5.00;98.80
5027;DHT22;2532;52.480;13.354;2023-12-22T08:02:45;5.00;98.80
5027;DHT22;2532;52.480;13.354;2023-12-22T08:05:13;5.10;98.70
5027;DHT22;2532;52.480;13.354;2023-12-22T08:07:41;5.10;98.60
5027;DHT22;2532;52.480;13.354;2023-12-22T08:10:08;5.10;98.60
5027;DHT22;2532;52.480;13.354;2023-12-22T08:12:35;5.10;98.50
5027;DHT22;2532;52.480;13.354;2023-12-22T08:15:03;5.10;98.50
5027;DHT22;2532;52.480;13.354;2023-12-22T08:17:31;5.10;98.20
5027;DHT22;2532;52.480;13.354;2023-12-22T08:19:59;5.10;98.30
5027;DHT22;2532;52.480;13.354;2023-12-22T08:22:25;5.00;98.30
5027;DHT22;2532;52.480;13.354;2023-12-22T08:24:54;5.10;98.60
5027;DHT22;2532;52.480;13.354;2023-12-22T08:27:21;5.00;98.60
5027;DHT22;2532;52.480;13.354;2023-12-22T08:29:48;5.00;98.60
5027;DHT22;2532;52.480;13.354;2023-12-22T08:32:15;4.90;98.70
5027;DHT22;2532;52.480;13.354;2023-12-22T08:34:41;4.80;98.60
5027;DHT22;2532;52.480;13.354;2023-12-22T08:37:08;4.80;98.50
5027;DHT22;2532;52.480;13.354;2023-12-22T08:39:35;4.70;98.50
5027;DHT22;2532;52.480;13.354;2023-12-22T08:42:04;4.70;98.60
5027;DHT22;2532;52.480;13.354;2023-12-22T08:44:32;4.70;98.60
5027;DHT22;2532;52.480;13.354;2023-12-22T08:46:59;4.70;98.70
5027;DHT22;2532;52.480;13.354;2023-12-22T08:49:26;4.60;98.60
5027;DHT22;2532;52.480;13.354;2023-12-22T08:51:53;4.60;98.50
5027;DHT22;2532;52.480;13.354;2023-12-22T08:54:20;4.50;98.40
5027;DHT22;2532;52.480;13.354;2023-12-22T08:56:47;4.50;98.30
5027;DHT22;2532;52.480;13.354;2023-12-22T08:59:15;4.50;98.40
5027;DHT22;2532;52.480;13.354;2023-12-22T09:01:42;4.50;98.70
5027;DHT22;2532;52.480;13.354;2023-12-22T09:04:09;4.50;98.30
5027;DHT22;2532;52.480;13.354;2023-12-22T09:06:37;4.50;98.50
5027;DHT22;2532;52.480;13.354;2023-12-22T09:09:05;4.50;98.40
5027;DHT22;2532;52.480;13.354;2023-12-22T09:11:33;4.60;98.50
5027;DHT22;2532;52.480;13.354;2023-12-22T09:14:00;4.70;98.40
5027;DHT22;2532;52.480;13.354;2023-12-22T09:16:29;4.70;98.30
5027;DHT22;2532;52.480;13.354;2023-12-22T09:18:55;4.70;98.20
5027;DHT22;2532;52.480;13.354;2023-12-22T09:21:23;4.80;98.10
5027;DHT22;2532;52.480;13.354;2023-12-22T09:23:50;4.80;97.80
5027;DHT22;2532;52.480;13.354;2023-12-22T09:26:16;4.80;97.70
5027;DHT22;2532;52.480;13.354;2023-12-22T09:28:44;4.90;97.70
5027;DHT22;2532;52.480;13.354;2023-12-22T09:31:12;4.90;97.40
5027;DHT22;2532;52.480;13.354;2023-12-22T09:33:41;5.00;97.40
5027;DHT22;2532;52.480;13.354;2023-12-22T09:36:08;5.00;97.20
5027;DHT22;2532;52.480;13.354;2023-12-22T09:38:36;5.00;96.90
5027;DHT22;2532;52.480;13.354;2023-12-22T09:41:05;5.10;96.80
5027;DHT22;2532;52.480;13.354;2023-12-22T09:43:35;5.10;96.60
5027;DHT22;2532;52.480;13.354;2023-12-22T09:46:02;5.20;96.70
5027;DHT22;2532;52.480;13.354;2023-12-22T09:48:31;5.20;96.40
5027;DHT22;2532;52.480;13.354;2023-12-22T09:51:02;5.20;96.40
5027;DHT22;2532;52.480;13.354;2023-12-22T09:53:30;5.20;96.40
5027;DHT22;2532;52.480;13.354;2023-12-22T09:55:58;5.20;96.60
5027;DHT22;2532;52.480;13.354;2023-12-22T09:58:26;5.20;96.50
5027;DHT22;2532;52.480;13.354;2023-12-22T10:00:54;5.20;96.70
5027;DHT22;2532;52.480;13.354;2023-12-22T10:03:24;5.20;96.60
5027;DHT22;2532;52.480;13.354;2023-12-22T10:05:51;5.30;96.60
5027;DHT22;2532;52.480;13.354;2023-12-22T10:08:20;5.30;96.40
5027;DHT22;2532;52.480;13.354;2023-12-22T10:10:47;5.40;96.30
5027;DHT22;2532;52.480;13.354;2023-12-22T10:13:18;5.40;96.20
5027;DHT22;2532;52.480;13.354;2023-12-22T10:15:45;5.50;95.90
5027;DHT22;2532;52.480;13.354;2023-12-22T10:18:13;5.50;96.00
5027;DHT22;2532;52.480;13.354;2023-12-22T10:20:40;5.50;95.60
5027;DHT22;2532;52.480;13.354;2023-12-22T10:23:08;5.50;95.50
5027;DHT22;2532;52.480;13.354;2023-12-22T10:25:36;5.50;95.40
5027;DHT22;2532;52.480;13.354;2023-12-22T10:28:05;5.50;95.40
5027;DHT22;2532;52.480;13.354;2023-12-22T10:30:36;5.60;95.30
5027;DHT22;2532;52.480;13.354;2023-12-22T10:33:04;5.50;95.10
5027;DHT22;2532;52.480;13.354;2023-12-22T10:35:31;5.60;95.00
5027;DHT22;2532;52.480;13.354;2023-12-22T10:37:58;5.60;95.10
5027;DHT22;2532;52.480;13.354;2023-12-22T10:40:25;5.60;95.00
5027;DHT22;2532;52.480;13.354;2023-12-22T10:42:54;5.70;94.90
5027;DHT22;2532;52.480;13.354;2023-12-22T10:45:22;5.70;95.00
5027;DHT22;2532;52.480;13.354;2023-12-22T10:47:49;5.70;95.00
5027;DHT22;2532;52.480;13.354;2023-12-22T10:50:22;5.70;94.90
5027;DHT22;2532;52.480;13.354;2023-12-22T10:52:51;5.70;94.60
5027;DHT22;2532;52.480;13.354;2023-12-22T10:55:19;5.70;94.60
5027;DHT22;2532;52.480;13.354;2023-12-22T10:57:47;5.70;94.60
5027;DHT22;2532;52.480;13.354;2023-12-22T11:00:16;5.70;94.60
5027;DHT22;2532;52.480;13.354;2023-12-22T11:02:47;5.70;94.40
5027;DHT22;2532;52.480;13.354;2023-12-22T11:05:15;5.80;94.60
5027;DHT22;2532;52.480;13.354;2023-12-22T11:07:48;5.80;94.60
5027;DHT22;2532;52.480;13.354;2023-12-22T11:10:19;5.90;94.30
5027;DHT22;2532;52.480;13.354;2023-12-22T11:12:47;5.90;94.20
5027;DHT22;2532;52.480;13.354;2023-12-22T11:15:16;5.90;94.20
5027;DHT22;2532;52.480;13.354;2023-12-22T11:17:44;5.90;94.20
5027;DHT22;2532;52.480;13.354;2023-12-22T11:20:13;5.90;94.20
5027;DHT22;2532;52.480;13.354;2023-12-22T11:22:42;5.90;94.00
5027;DHT22;2532;52.480;13.354;2023-12-22T11:25:10;5.80;94.00
5027;DHT22;2532;52.480;13.354;2023-12-22T11:27:38;5.80;94.20
5027;DHT22;2532;52.480;13.354;2023-12-22T11:30:06;5.80;94.00
5027;DHT22;2532;52.480;13.354;2023-12-22T11:32:36;5.80;93.90
5027;DHT22;2532;52.480;13.354;2023-12-22T11:35:04;5.80;93.60
5027;DHT22;2532;52.480;13.354;2023-12-22T11:37:38;5.90;93.90
5027;DHT22;2532;52.480;13.354;2023-12-22T11:40:07;6.00;93.90
5027;DHT22;2532;52.480;13.354;2023-12-22T11:42:36;6.10;93.50
5027;DHT22;2532;52.480;13.354;2023-12-22T11:45:09;6.20;93.40
5027;DHT22;2532;52.480;13.354;2023-12-22T11:47:39;6.10;93.10
5027;DHT22;2532;52.480;13.354;2023-12-22T11:50:09;6.10;93.50
5027;DHT22;2532;52.480;13.354;2023-12-22T11:52:36;6.10;93.90
5027;DHT22;2532;52.480;13.354;2023-12-22T11:55:05;6.10;94.20
5027;DHT22;2532;52.480;13.354;2023-12-22T11:57:34;6.10;94.40
5027;DHT22;2532;52.480;13.354;2023-12-22T12:00:06;6.10;94.30
5027;DHT22;2532;52.480;13.354;2023-12-22T12:02:34;6.10;94.50
5027;DHT22;2532;52.480;13.354;2023-12-22T12:05:07;6.10;94.60
5027;DHT22;2532;52.480;13.354;2023-12-22T12:07:41;6.10;94.50
5027;DHT22;2532;52.480;13.354;2023-12-22T12:10:11;6.10;94.40
5027;DHT22;2532;52.480;13.354;2023-12-22T12:12:38;6.00;94.30
5027;DHT22;2532;52.480;13.354;2023-12-22T12:15:10;6.00;94.30
5027;DHT22;2532;52.480;13.354;2023-12-22T12:17:40;6.00;94.30
5027;DHT22;2532;52.480;13.354;2023-12-22T12:20:10;6.00;94.40
5027;DHT22;2532;52.480;13.354;2023-12-22T12:22:37;6.00;94.40
5027;DHT22;2532;52.480;13.354;2023-12-22T12:25:09;6.00;94.30
5027;DHT22;2532;52.480;13.354;2023-12-22T12:27:37;6.00;94.50
5027;DHT22;2532;52.480;13.354;2023-12-22T12:30:13;6.00;94.90
5027;DHT22;2532;52.480;13.354;2023-12-22T12:32:42;6.10;94.60
5027;DHT22;2532;52.480;13.354;2023-12-22T12:35:12;6.00;94.50
5027;DHT22;2532;52.480;13.354;2023-12-22T12:37:40;6.00;94.60
5027;DHT22;2532;52.480;13.354;2023-12-22T12:40:11;6.00;94.60
5027;DHT22;2532;52.480;13.354;2023-12-22T12:42:38;6.00;94.50
5027;DHT22;2532;52.480;13.354;2023-12-22T12:45:07;6.10;94.50
5027;DHT22;2532;52.480;13.354;2023-12-22T12:47:34;6.10;94.60
5027;DHT22;2532;52.480;13.354;2023-12-22T12:50:03;6.10;94.80
5027;DHT22;2532;52.480;13.354;2023-12-22T12:52:30;6.00;94.40
5027;DHT22;2532;52.480;13.354;2023-12-22T12:54:57;6.10;94.60
5027;DHT22;2532;52.480;13.354;2023-12-22T12:57:26;6.10;94.60
5027;DHT22;2532;52.480;13.354;2023-12-22T12:59:53;6.20;94.70
5027;DHT22;2532;52.480;13.354;2023-12-22T13:02:20;6.20;94.70
5027;DHT22;2532;52.480;13.354;2023-12-22T13:04:48;6.30;94.60
5027;DHT22;2532;52.480;13.354;2023-12-22T13:07:24;6.20;94.60
5027;DHT22;2532;52.480;13.354;2023-12-22T13:09:53;6.20;94.80
5027;DHT22;2532;52.480;13.354;2023-12-22T13:12:23;6.20;94.80
5027;DHT22;2532;52.480;13.354;2023-12-22T13:14:51;6.20;94.70
5027;DHT22;2532;52.480;13.354;2023-12-22T13:17:18;6.30;94.70
5027;DHT22;2532;52.480;13.354;2023-12-22T13:19:45;6.30;94.30
5027;DHT22;2532;52.480;13.354;2023-12-22T13:22:12;6.30;94.10
5027;DHT22;2532;52.480;13.354;2023-12-22T13:24:39;6.40;94.00
5027;DHT22;2532;52.480;13.354;2023-12-22T13:27:08;6.30;93.90
5027;DHT22;2532;52.480;13.354;2023-12-22T13:29:42;6.30;93.80
5027;DHT22;2532;52.480;13.354;2023-12-22T13:32:15;6.20;93.90
5027;DHT22;2532;52.480;13.354;2023-12-22T13:34:50;6.20;93.60
5027;DHT22;2532;52.480;13.354;2023-12-22T13:37:17;6.20;93.60
5027;DHT22;2532;52.480;13.354;2023-12-22T13:39:45;6.20;93.70
5027;DHT22;2532;52.480;13.354;2023-12-22T13:42:17;6.20;93.50
5027;DHT22;2532;52.480;13.354;2023-12-22T13:44:45;6.30;93.60
5027;DHT22;2532;52.480;13.354;2023-12-22T13:47:15;6.30;93.50
5027;DHT22;2532;52.480;13.354;2023-12-22T13:49:42;6.30;93.50
5027;DHT22;2532;52.480;13.354;2023-12-22T13:52:24;6.30;93.50
5027;DHT22;2532;52.480;13.354;2023-12-22T13:54:52;6.40;93.60
5027;DHT22;2532;52.480;13.354;2023-12-22T13:57:23;6.40;93.60
5027;DHT22;2532;52.480;13.354;2023-12-22T13:59:50;6.40;93.50
5027;DHT22;2532;52.480;13.354;2023-12-22T14:02:20;6.40;93.60
5027;DHT22;2532;52.480;13.354;2023-12-22T14:04:47;6.40;93.80
5027;DHT22;2532;52.480;13.354;2023-12-22T14:07:14;6.30;93.90
5027;DHT22;2532;52.480;13.354;2023-12-22T14:09:41;6.40;94.20
5027;DHT22;2532;52.480;13.354;2023-12-22T14:12:08;6.30;94.40
5027;DHT22;2532;52.480;13.354;2023-12-22T14:14:39;6.30;94.70
5027;DHT22;2532;52.480;13.354;2023-12-22T14:17:06;6.30;95.10
5027;DHT22;2532;52.480;13.354;2023-12-22T14:19:33;6.20;95.30
5027;DHT22;2532;52.480;13.354;2023-12-22T14:22:00;6.10;95.40
5027;DHT22;2532;52.480;13.354;2023-12-22T14:24:27;6.00;95.50
5027;DHT22;2532;52.480;13.354;2023-12-22T14:26:54;6.00;95.70
5027;DHT22;2532;52.480;13.354;2023-12-22T14:29:22;5.90;95.70
5027;DHT22;2532;52.480;13.354;2023-12-22T14:31:51;5.80;95.60
5027;DHT22;2532;52.480;13.354;2023-12-22T14:34:18;5.80;95.80
5027;DHT22;2532;52.480;13.354;2023-12-22T14:36:45;5.80;95.70
5027;DHT22;2532;52.480;13.354;2023-12-22T14:39:12;5.70;95.40
5027;DHT22;2532;52.480;13.354;2023-12-22T14:41:40;5.60;95.20
5027;DHT22;2532;52.480;13.354;2023-12-22T14:44:07;5.60;95.30
5027;DHT22;2532;52.480;13.354;2023-12-22T14:46:37;5.60;95.20
5027;DHT22;2532;52.480;13.354;2023-12-22T14:49:07;5.60;95.10
5027;DHT22;2532;52.480;13.354;2023-12-22T14:51:37;5.50;95.10
5027;DHT22;2532;52.480;13.354;2023-12-22T14:54:04;5.50;95.10
5027;DHT22;2532;52.480;13.354;2023-12-22T14:56:32;5.50;95.00
5027;DHT22;2532;52.480;13.354;2023-12-22T14:58:59;5.50;94.90
5027;DHT22;2532;52.480;13.354;2023-12-22T15:01:26;5.50;95.20
5027;DHT22;2532;52.480;13.354;2023-12-22T15:03:53;5.40;94.90
5027;DHT22;2532;52.480;13.354;2023-12-22T15:06:21;5.40;95.00
5027;DHT22;2532;52.480;13.354;2023-12-22T15:08:48;5.40;95.00
5027;DHT22;2532;52.480;13.354;2023-12-22T15:11:17;5.30;95.10
5027;DHT22;2532;52.480;13.354;2023-12-22T15:13:44;5.40;95.20
5027;DHT22;2532;52.480;13.354;2023-12-22T15:16:13;5.30;95.30
5027;DHT22;2532;52.480;13.354;2023-12-22T15:18:42;5.40;95.40
5027;DHT22;2532;52.480;13.354;2023-12-22T15:21:09;5.40;95.40
5027;DHT22;2532;52.480;13.354;2023-12-22T15:23:41;5.40;95.50
5027;DHT22;2532;52.480;13.354;2023-12-22T15:26:08;5.40;95.60
5027;DHT22;2532;52.480;13.354;2023-12-22T15:28:36;5.40;95.70
5027;DHT22;2532;52.480;13.354;2023-12-22T15:31:07;5.40;95.80
5027;DHT22;2532;52.480;13.354;2023-12-22T15:33:34;5.40;95.90
5027;DHT22;2532;52.480;13.354;2023-12-22T15:36:02;5.40;96.00
5027;DHT22;2532;52.480;13.354;2023-12-22T15:38:28;5.40;96.10
5027;DHT22;2532;52.480;13.354;2023-12-22T15:40:59;5.40;96.20
5027;DHT22;2532;52.480;13.354;2023-12-22T15:43:26;5.40;96.30
5027;DHT22;2532;52.480;13.354;2023-12-22T15:45:53;5.40;96.40
5027;DHT22;2532;52.480;13.354;2023-12-22T15:48:20;5.40;96.50
5027;DHT22;2532;52.480;13.354;2023-12-22T15:50:47;5.40;96.50
5027;DHT22;2532;52.480;13.354;2023-12-22T15:53:14;5.40;96.60
5027;DHT22;2532;52.480;13.354;2023-12-22T15:55:41;5.50;96.60
5027;DHT22;2532;52.480;13.354;2023-12-22T15:58:10;5.50;96.60
5027;DHT22;2532;52.480;13.354;2023-12-22T16:00:38;5.50;96.70
5027;DHT22;2532;52.480;13.354;2023-12-22T16:03:05;5.50;96.70
5027;DHT22;2532;52.480;13.354;2023-12-22T16:05:32;5.50;96.70